sensor_id;sensor_type;location;lat;lon;timestamp;P1;durP1;ratioP1;P2;durP2;ratioP2
5418;SDS011;2732;52.092;11.556;2022-09-29T00:04:49;14.80;;;11.30;;
5418;SDS011;2732;52.092;11.556;2022-09-29T00:09:52;12.63;;;9.33;;
5418;SDS011;2732;52.092;11.556;2022-09-29T00:14:53;14.13;;;10.67;;
5418;SDS011;2732;52.092;11.556;2022-09-29T00:19:53;16.13;;;11.57;;
5418;SDS011;2732;52.092;11.556;2022-09-29T00:24:54;15.70;;;11.47;;
5418;SDS011;2732;52.092;11.556;2022-09-29T00:29:55;17.90;;;11.60;;
5418;SDS011;2732;52.092;11.556;2022-09-29T00:34:56;15.70;;;10.60;;
5418;SDS011;2732;52.092;11.556;2022-09-29T00:39:56;16.00;;;11.27;;
5418;SDS011;2732;52.092;11.556;2022-09-29T00:50:17;17.13;;;12.70;;
5418;SDS011;2732;52.092;11.556;2022-09-29T00:55:35;15.93;;;11.30;;
5418;SDS011;2732;52.092;11.556;2022-09-29T01:00:42;18.83;;;12.20;;
5418;SDS011;2732;52.092;11.556;2022-09-29T01:05:45;18.17;;;12.23;;
5418;SDS011;2732;52.092;11.556;2022-09-29T01:11:11;18.90;;;11.70;;
5418;SDS011;2732;52.092;11.556;2022-09-29T01:16:12;20.40;;;13.10;;
5418;SDS011;2732;52.092;11.556;2022-09-29T01:21:27;16.43;;;11.97;;
5418;SDS011;2732;52.092;11.556;2022-09-29T01:32:35;16.07;;;11.30;;
5418;SDS011;2732;52.092;11.556;2022-09-29T01:43:10;12.37;;;9.60;;
5418;SDS011;2732;52.092;11.556;2022-09-29T01:48:31;14.57;;;9.30;;
5418;SDS011;2732;52.092;11.556;2022-09-29T02:04:57;11.33;;;9.73;;
5418;SDS011;2732;52.092;11.556;2022-09-29T02:15:27;13.50;;;10.20;;
5418;SDS011;2732;52.092;11.556;2022-09-29T02:20:32;15.57;;;10.37;;
5418;SDS011;2732;52.092;11.556;2022-09-29T02:25:34;14.80;;;10.50;;
5418;SDS011;2732;52.092;11.556;2022-09-29T02:30:37;14.77;;;10.30;;
5418;SDS011;2732;52.092;11.556;2022-09-29T02:35:40;12.47;;;9.37;;
5418;SDS011;2732;52.092;11.556;2022-09-29T02:41:10;11.47;;;8.40;;
5418;SDS011;2732;52.092;11.556;2022-09-29T02:51:58;10.97;;;8.73;;
5418;SDS011;2732;52.092;11.556;2022-09-29T02:57:44;12.70;;;8.90;;
5418;SDS011;2732;52.092;11.556;2022-09-29T03:02:52;10.63;;;8.67;;
5418;SDS011;2732;52.092;11.556;2022-09-29T03:07:53;9.40;;;8.33;;
5418;SDS011;2732;52.092;11.556;2022-09-29T03:12:54;9.60;;;8.57;;
5418;SDS011;2732;52.092;11.556;2022-09-29T03:17:54;9.53;;;8.27;;
5418;SDS011;2732;52.092;11.556;2022-09-29T03:22:56;9.27;;;7.40;;
5418;SDS011;2732;52.092;11.556;2022-09-29T03:27:57;14.20;;;7.57;;
5418;SDS011;2732;52.092;11.556;2022-09-29T03:32:58;9.20;;;7.90;;
5418;SDS011;2732;52.092;11.556;2022-09-29T03:37:59;12.40;;;7.83;;
5418;SDS011;2732;52.092;11.556;2022-09-29T03:43:00;10.37;;;7.50;;
5418;SDS011;2732;52.092;11.556;2022-09-29T03:48:00;9.00;;;8.03;;
5418;SDS011;2732;52.092;11.556;2022-09-29T03:53:01;9.20;;;8.07;;
5418;SDS011;2732;52.092;11.556;2022-09-29T03:58:02;8.90;;;6.50;;
5418;SDS011;2732;52.092;11.556;2022-09-29T04:03:03;9.47;;;7.07;;
5418;SDS011;2732;52.092;11.556;2022-09-29T04:08:05;12.50;;;8.27;;
5418;SDS011;2732;52.092;11.556;2022-09-29T04:13:07;8.93;;;7.37;;
5418;SDS011;2732;52.092;11.556;2022-09-29T04:18:08;23.70;;;7.57;;
5418;SDS011;2732;52.092;11.556;2022-09-29T04:23:09;8.33;;;7.53;;
5418;SDS011;2732;52.092;11.556;2022-09-29T04:28:10;9.70;;;7.03;;
5418;SDS011;2732;52.092;11.556;2022-09-29T04:33:11;8.37;;;7.10;;
5418;SDS011;2732;52.092;11.556;2022-09-29T04:38:12;8.20;;;6.70;;
5418;SDS011;2732;52.092;11.556;2022-09-29T04:43:12;6.73;;;6.10;;
5418;SDS011;2732;52.092;11.556;2022-09-29T04:48:13;9.50;;;5.97;;
5418;SDS011;2732;52.092;11.556;2022-09-29T04:53:14;6.77;;;6.10;;
5418;SDS011;2732;52.092;11.556;2022-09-29T04:58:15;6.60;;;5.70;;
5418;SDS011;2732;52.092;11.556;2022-09-29T05:03:15;6.47;;;5.87;;
5418;SDS011;2732;52.092;11.556;2022-09-29T05:08:16;6.87;;;6.17;;
5418;SDS011;2732;52.092;11.556;2022-09-29T05:13:16;6.77;;;5.40;;
5418;SDS011;2732;52.092;11.556;2022-09-29T05:18:17;6.03;;;5.53;;
5418;SDS011;2732;52.092;11.556;2022-09-29T05:23:18;6.33;;;5.10;;
5418;SDS011;2732;52.092;11.556;2022-09-29T05:28:19;8.33;;;6.37;;
5418;SDS011;2732;52.092;11.556;2022-09-29T05:33:20;7.47;;;4.97;;
5418;SDS011;2732;52.092;11.556;2022-09-29T05:38:20;6.57;;;4.90;;
5418;SDS011;2732;52.092;11.556;2022-09-29T05:43:22;5.30;;;4.80;;
5418;SDS011;2732;52.092;11.556;2022-09-29T05:48:22;5.00;;;4.47;;
5418;SDS011;2732;52.092;11.556;2022-09-29T05:53:24;5.90;;;5.03;;
5418;SDS011;2732;52.092;11.556;2022-09-29T05:58:25;8.30;;;5.33;;
5418;SDS011;2732;52.092;11.556;2022-09-29T06:03:26;6.30;;;5.20;;
5418;SDS011;2732;52.092;11.556;2022-09-29T06:08:27;7.07;;;5.20;;
5418;SDS011;2732;52.092;11.556;2022-09-29T06:13:27;7.93;;;4.60;;
5418;SDS011;2732;52.092;11.556;2022-09-29T06:18:28;7.93;;;5.13;;
5418;SDS011;2732;52.092;11.556;2022-09-29T06:23:29;8.67;;;6.47;;
5418;SDS011;2732;52.092;11.556;2022-09-29T06:28:31;6.30;;;5.10;;
5418;SDS011;2732;52.092;11.556;2022-09-29T06:33:33;5.20;;;4.80;;
5418;SDS011;2732;52.092;11.556;2022-09-29T06:38:35;10.40;;;5.70;;
5418;SDS011;2732;52.092;11.556;2022-09-29T06:43:36;6.37;;;5.03;;
5418;SDS011;2732;52.092;11.556;2022-09-29T06:48:36;5.63;;;5.10;;
5418;SDS011;2732;52.092;11.556;2022-09-29T06:53:37;6.77;;;6.07;;
5418;SDS011;2732;52.092;11.556;2022-09-29T06:58:38;6.67;;;4.80;;
5418;SDS011;2732;52.092;11.556;2022-09-29T07:03:39;9.30;;;5.37;;
5418;SDS011;2732;52.092;11.556;2022-09-29T07:08:40;5.53;;;4.20;;
5418;SDS011;2732;52.092;11.556;2022-09-29T07:13:41;6.03;;;4.93;;
5418;SDS011;2732;52.092;11.556;2022-09-29T07:18:41;13.70;;;4.60;;
5418;SDS011;2732;52.092;11.556;2022-09-29T07:23:44;8.50;;;5.10;;
5418;SDS011;2732;52.092;11.556;2022-09-29T07:28:46;4.93;;;4.30;;
5418;SDS011;2732;52.092;11.556;2022-09-29T07:33:48;5.60;;;5.10;;
5418;SDS011;2732;52.092;11.556;2022-09-29T07:38:50;7.67;;;5.80;;
5418;SDS011;2732;52.092;11.556;2022-09-29T07:43:51;7.53;;;5.63;;
5418;SDS011;2732;52.092;11.556;2022-09-29T07:48:52;9.37;;;5.73;;
5418;SDS011;2732;52.092;11.556;2022-09-29T07:53:53;5.30;;;4.80;;
5418;SDS011;2732;52.092;11.556;2022-09-29T07:58:53;6.30;;;5.70;;
5418;SDS011;2732;52.092;11.556;2022-09-29T08:03:55;6.97;;;5.70;;
5418;SDS011;2732;52.092;11.556;2022-09-29T08:08:55;9.00;;;6.33;;
5418;SDS011;2732;52.092;11.556;2022-09-29T08:13:56;9.00;;;6.77;;
5418;SDS011;2732;52.092;11.556;2022-09-29T08:18:57;10.57;;;6.97;;
5418;SDS011;2732;52.092;11.556;2022-09-29T08:23:59;12.23;;;6.70;;
5418;SDS011;2732;52.092;11.556;2022-09-29T08:29:01;13.33;;;9.53;;
5418;SDS011;2732;52.092;11.556;2022-09-29T08:34:03;12.30;;;9.93;;
5418;SDS011;2732;52.092;11.556;2022-09-29T08:39:04;12.47;;;9.27;;
5418;SDS011;2732;52.092;11.556;2022-09-29T08:49:13;11.57;;;9.70;;
5418;SDS011;2732;52.092;11.556;2022-09-29T08:54:26;12.90;;;10.93;;
5418;SDS011;2732;52.092;11.556;2022-09-29T08:59:33;14.67;;;9.70;;
5418;SDS011;2732;52.092;11.556;2022-09-29T09:10:07;13.27;;;9.70;;
5418;SDS011;2732;52.092;11.556;2022-09-29T09:25:58;15.33;;;11.70;;
5418;SDS011;2732;52.092;11.556;2022-09-29T09:31:06;13.27;;;10.43;;
5418;SDS011;2732;52.092;11.556;2022-09-29T09:41:45;16.73;;;10.60;;
5418;SDS011;2732;52.092;11.556;2022-09-29T09:46:49;12.70;;;10.93;;
5418;SDS011;2732;52.092;11.556;2022-09-29T09:51:57;14.17;;;9.87;;
5418;SDS011;2732;52.092;11.556;2022-09-29T10:02:28;16.30;;;9.47;;
5418;SDS011;2732;52.092;11.556;2022-09-29T10:07:30;10.17;;;8.53;;
5418;SDS011;2732;52.092;11.556;2022-09-29T10:12:31;7.27;;;6.57;;
5418;SDS011;2732;52.092;11.556;2022-09-29T10:17:36;9.60;;;8.10;;
5418;SDS011;2732;52.092;11.556;2022-09-29T10:22:41;12.80;;;7.67;;
5418;SDS011;2732;52.092;11.556;2022-09-29T10:27:43;8.60;;;7.80;;
5418;SDS011;2732;52.092;11.556;2022-09-29T10:32:48;7.30;;;6.60;;
5418;SDS011;2732;52.092;11.556;2022-09-29T10:38:01;6.90;;;6.20;;
5418;SDS011;2732;52.092;11.556;2022-09-29T10:43:19;7.80;;;6.40;;
5418;SDS011;2732;52.092;11.556;2022-09-29T10:48:30;6.63;;;5.23;;
5418;SDS011;2732;52.092;11.556;2022-09-29T10:53:33;6.83;;;6.13;;
5418;SDS011;2732;52.092;11.556;2022-09-29T10:58:39;7.07;;;5.60;;
5418;SDS011;2732;52.092;11.556;2022-09-29T11:09:28;5.40;;;4.90;;
5418;SDS011;2732;52.092;11.556;2022-09-29T11:14:39;5.10;;;4.70;;
5418;SDS011;2732;52.092;11.556;2022-09-29T11:19:41;4.53;;;4.23;;
5418;SDS011;2732;52.092;11.556;2022-09-29T11:30:23;4.60;;;4.20;;
5418;SDS011;2732;52.092;11.556;2022-09-29T11:35:32;5.07;;;4.67;;
5418;SDS011;2732;52.092;11.556;2022-09-29T11:46:28;3.90;;;3.50;;
5418;SDS011;2732;52.092;11.556;2022-09-29T12:03:25;4.10;;;3.70;;
5418;SDS011;2732;52.092;11.556;2022-09-29T12:19:27;4.20;;;3.90;;
5418;SDS011;2732;52.092;11.556;2022-09-29T12:24:39;3.77;;;3.50;;
5418;SDS011;2732;52.092;11.556;2022-09-29T12:29:47;4.50;;;4.20;;
5418;SDS011;2732;52.092;11.556;2022-09-29T12:46:09;3.43;;;3.23;;
5418;SDS011;2732;52.092;11.556;2022-09-29T12:51:24;4.10;;;3.80;;
5418;SDS011;2732;52.092;11.556;2022-09-29T13:25:21;2.80;;;2.60;;
5418;SDS011;2732;52.092;11.556;2022-09-29T13:30:46;2.70;;;2.60;;
5418;SDS011;2732;52.092;11.556;2022-09-29T13:35:47;2.80;;;2.70;;
5418;SDS011;2732;52.092;11.556;2022-09-29T13:46:25;4.70;;;2.60;;
5418;SDS011;2732;52.092;11.556;2022-09-29T13:51:42;2.03;;;1.93;;
5418;SDS011;2732;52.092;11.556;2022-09-29T14:02:00;2.80;;;2.70;;
5418;SDS011;2732;52.092;11.556;2022-09-29T14:07:03;3.57;;;3.27;;
5418;SDS011;2732;52.092;11.556;2022-09-29T14:12:06;2.60;;;2.40;;
5418;SDS011;2732;52.092;11.556;2022-09-29T14:17:20;2.70;;;2.60;;
5418;SDS011;2732;52.092;11.556;2022-09-29T14:27:37;3.17;;;1.97;;
5418;SDS011;2732;52.092;11.556;2022-09-29T14:32:51;2.20;;;2.03;;
5418;SDS011;2732;52.092;11.556;2022-09-29T14:38:23;2.73;;;2.53;;
5418;SDS011;2732;52.092;11.556;2022-09-29T15:00:49;1.70;;;1.60;;
5418;SDS011;2732;52.092;11.556;2022-09-29T15:06:26;2.20;;;2.00;;
5418;SDS011;2732;52.092;11.556;2022-09-29T15:11:29;2.30;;;2.20;;
5418;SDS011;2732;52.092;11.556;2022-09-29T15:27:40;2.47;;;2.37;;
5418;SDS011;2732;52.092;11.556;2022-09-29T15:32:44;2.60;;;2.43;;
5418;SDS011;2732;52.092;11.556;2022-09-29T15:37:56;2.57;;;2.47;;
5418;SDS011;2732;52.092;11.556;2022-09-29T15:43:22;3.20;;;2.93;;
5418;SDS011;2732;52.092;11.556;2022-09-29T15:48:29;3.80;;;3.33;;
5418;SDS011;2732;52.092;11.556;2022-09-29T15:53:30;3.50;;;3.30;;
5418;SDS011;2732;52.092;11.556;2022-09-29T16:03:36;3.07;;;2.87;;
5418;SDS011;2732;52.092;11.556;2022-09-29T16:08:42;2.57;;;2.47;;
5418;SDS011;2732;52.092;11.556;2022-09-29T16:13:49;2.50;;;2.40;;
5418;SDS011;2732;52.092;11.556;2022-09-29T16:19:06;4.60;;;2.70;;
5418;SDS011;2732;52.092;11.556;2022-09-29T16:24:16;8.40;;;2.40;;
5418;SDS011;2732;52.092;11.556;2022-09-29T16:34:28;1.97;;;1.87;;
5418;SDS011;2732;52.092;11.556;2022-09-29T16:39:43;5.43;;;2.80;;
5418;SDS011;2732;52.092;11.556;2022-09-29T16:44:47;2.83;;;2.73;;
5418;SDS011;2732;52.092;11.556;2022-09-29T16:49:50;2.57;;;2.47;;
5418;SDS011;2732;52.092;11.556;2022-09-29T16:55:14;3.60;;;3.40;;
5418;SDS011;2732;52.092;11.556;2022-09-29T17:00:26;5.07;;;4.53;;
5418;SDS011;2732;52.092;11.556;2022-09-29T17:05:27;10.50;;;5.10;;
5418;SDS011;2732;52.092;11.556;2022-09-29T17:10:29;5.67;;;4.90;;
5418;SDS011;2732;52.092;11.556;2022-09-29T17:15:30;6.83;;;6.20;;
5418;SDS011;2732;52.092;11.556;2022-09-29T17:20:31;6.93;;;5.60;;
5418;SDS011;2732;52.092;11.556;2022-09-29T17:25:32;6.07;;;5.57;;
5418;SDS011;2732;52.092;11.556;2022-09-29T17:30:33;7.00;;;6.40;;
5418;SDS011;2732;52.092;11.556;2022-09-29T17:35:38;7.53;;;6.73;;
5418;SDS011;2732;52.092;11.556;2022-09-29T17:40:48;7.20;;;6.47;;
5418;SDS011;2732;52.092;11.556;2022-09-29T17:46:02;7.77;;;7.03;;
5418;SDS011;2732;52.092;11.556;2022-09-29T17:51:12;14.87;;;7.43;;
5418;SDS011;2732;52.092;11.556;2022-09-29T17:56:20;10.17;;;7.50;;
5418;SDS011;2732;52.092;11.556;2022-09-29T18:01:27;7.40;;;6.70;;
5418;SDS011;2732;52.092;11.556;2022-09-29T18:06:29;7.47;;;6.70;;
5418;SDS011;2732;52.092;11.556;2022-09-29T18:11:31;7.60;;;6.80;;
5418;SDS011;2732;52.092;11.556;2022-09-29T18:16:32;9.00;;;8.10;;
5418;SDS011;2732;52.092;11.556;2022-09-29T18:21:33;8.20;;;7.40;;
5418;SDS011;2732;52.092;11.556;2022-09-29T18:26:34;7.87;;;7.17;;
5418;SDS011;2732;52.092;11.556;2022-09-29T18:31:35;9.90;;;8.00;;
5418;SDS011;2732;52.092;11.556;2022-09-29T18:36:36;7.60;;;6.93;;
5418;SDS011;2732;52.092;11.556;2022-09-29T18:41:36;7.93;;;7.10;;
5418;SDS011;2732;52.092;11.556;2022-09-29T18:46:38;9.30;;;8.33;;
5418;SDS011;2732;52.092;11.556;2022-09-29T18:51:39;10.47;;;9.10;;
5418;SDS011;2732;52.092;11.556;2022-09-29T18:56:40;9.83;;;8.83;;
5418;SDS011;2732;52.092;11.556;2022-09-29T19:01:40;10.93;;;8.80;;
5418;SDS011;2732;52.092;11.556;2022-09-29T19:06:41;8.60;;;7.70;;
5418;SDS011;2732;52.092;11.556;2022-09-29T19:11:42;13.50;;;7.87;;
5418;SDS011;2732;52.092;11.556;2022-09-29T19:16:44;9.30;;;8.43;;
5418;SDS011;2732;52.092;11.556;2022-09-29T19:21:44;10.13;;;9.13;;
5418;SDS011;2732;52.092;11.556;2022-09-29T19:26:45;9.80;;;8.80;;
5418;SDS011;2732;52.092;11.556;2022-09-29T19:31:46;10.37;;;8.43;;
5418;SDS011;2732;52.092;11.556;2022-09-29T19:36:46;7.57;;;6.87;;
5418;SDS011;2732;52.092;11.556;2022-09-29T19:41:47;9.13;;;7.73;;
5418;SDS011;2732;52.092;11.556;2022-09-29T19:46:48;9.60;;;7.73;;
5418;SDS011;2732;52.092;11.556;2022-09-29T19:51:49;9.47;;;8.40;;
5418;SDS011;2732;52.092;11.556;2022-09-29T19:56:54;7.83;;;7.17;;
5418;SDS011;2732;52.092;11.556;2022-09-29T20:01:57;7.10;;;6.50;;
5418;SDS011;2732;52.092;11.556;2022-09-29T20:07:00;8.07;;;7.37;;
5418;SDS011;2732;52.092;11.556;2022-09-29T20:12:03;7.47;;;6.77;;
5418;SDS011;2732;52.092;11.556;2022-09-29T20:17:03;9.67;;;8.17;;
5418;SDS011;2732;52.092;11.556;2022-09-29T20:22:04;9.23;;;8.33;;
5418;SDS011;2732;52.092;11.556;2022-09-29T20:27:08;8.43;;;7.63;;
5418;SDS011;2732;52.092;11.556;2022-09-29T20:32:09;10.27;;;7.20;;
5418;SDS011;2732;52.092;11.556;2022-09-29T20:37:10;8.53;;;7.60;;
5418;SDS011;2732;52.092;11.556;2022-09-29T20:42:15;11.80;;;7.60;;
5418;SDS011;2732;52.092;11.556;2022-09-29T20:47:16;8.43;;;7.63;;
5418;SDS011;2732;52.092;11.556;2022-09-29T20:52:18;10.60;;;7.50;;
5418;SDS011;2732;52.092;11.556;2022-09-29T20:57:18;9.57;;;8.37;;
5418;SDS011;2732;52.092;11.556;2022-09-29T21:02:19;10.30;;;9.23;;
5418;SDS011;2732;52.092;11.556;2022-09-29T21:07:20;9.30;;;8.40;;
5418;SDS011;2732;52.092;11.556;2022-09-29T21:12:36;10.27;;;9.17;;
5418;SDS011;2732;52.092;11.556;2022-09-29T21:17:37;10.40;;;9.30;;
5418;SDS011;2732;52.092;11.556;2022-09-29T21:22:37;14.50;;;8.33;;
5418;SDS011;2732;52.092;11.556;2022-09-29T21:27:38;11.80;;;8.57;;
5418;SDS011;2732;52.092;11.556;2022-09-29T21:32:39;10.43;;;8.70;;
5418;SDS011;2732;52.092;11.556;2022-09-29T21:37:39;11.80;;;8.27;;
5418;SDS011;2732;52.092;11.556;2022-09-29T21:42:41;11.60;;;8.10;;
5418;SDS011;2732;52.092;11.556;2022-09-29T21:47:41;9.73;;;7.90;;
5418;SDS011;2732;52.092;11.556;2022-09-29T21:53:00;8.50;;;7.70;;
5418;SDS011;2732;52.092;11.556;2022-09-29T21:58:01;10.07;;;8.63;;
5418;SDS011;2732;52.092;11.556;2022-09-29T22:03:02;14.13;;;8.47;;
5418;SDS011;2732;52.092;11.556;2022-09-29T22:08:03;9.50;;;8.50;;
5418;SDS011;2732;52.092;11.556;2022-09-29T22:13:03;14.90;;;9.63;;
5418;SDS011;2732;52.092;11.556;2022-09-29T22:18:04;14.97;;;9.20;;
5418;SDS011;2732;52.092;11.556;2022-09-29T22:23:05;9.77;;;7.77;;
5418;SDS011;2732;52.092;11.556;2022-09-29T22:28:05;9.70;;;8.03;;
5418;SDS011;2732;52.092;11.556;2022-09-29T22:33:06;10.73;;;7.50;;
5418;SDS011;2732;52.092;11.556;2022-09-29T22:38:07;11.37;;;7.50;;
5418;SDS011;2732;52.092;11.556;2022-09-29T22:43:09;11.03;;;7.83;;
5418;SDS011;2732;52.092;11.556;2022-09-29T22:48:10;7.73;;;6.97;;
5418;SDS011;2732;52.092;11.556;2022-09-29T22:53:10;6.87;;;6.17;;
5418;SDS011;2732;52.092;11.556;2022-09-29T22:58:12;6.17;;;5.53;;
5418;SDS011;2732;52.092;11.556;2022-09-29T23:03:13;6.83;;;6.00;;
5418;SDS011;2732;52.092;11.556;2022-09-29T23:08:15;8.00;;;7.20;;
5418;SDS011;2732;52.092;11.556;2022-09-29T23:13:17;8.10;;;7.00;;
5418;SDS011;2732;52.092;11.556;2022-09-29T23:18:21;9.67;;;8.57;;
5418;SDS011;2732;52.092;11.556;2022-09-29T23:23:22;10.00;;;7.50;;
5418;SDS011;2732;52.092;11.556;2022-09-29T23:28:23;9.20;;;7.63;;
5418;SDS011;2732;52.092;11.556;2022-09-29T23:33:24;11.97;;;8.80;;
5418;SDS011;2732;52.092;11.556;2022-09-29T23:38:25;10.67;;;9.30;;
5418;SDS011;2732;52.092;11.556;2022-09-29T23:43:45;8.77;;;7.80;;
5418;SDS011;2732;52.092;11.556;2022-09-29T23:48:45;11.60;;;7.80;;
5418;SDS011;2732;52.092;11.556;2022-09-29T23:53:46;9.67;;;8.67;;
5418;SDS011;2732;52.092;11.556;2022-09-29T23:58:47;7.90;;;7.10;;
